sensor_id;sensor_type;location;lat;lon;timestamp;temperature;humidity
15115;DHT22;7658;51.456;7.622;2023-10-09T00:01:08;11.80;99.90
15115;DHT22;7658;51.456;7.622;2023-10-09T00:03:49;11.70;99.90
15115;DHT22;7658;51.456;7.622;2023-10-09T00:06:19;11.80;99.90
15115;DHT22;7658;51.456;7.622;2023-10-09T00:09:05;11.70;99.90
15115;DHT22;7658;51.456;7.622;2023-10-09T00:11:44;11.70;99.90
15115;DHT22;7658;51.456;7.622;2023-10-09T00:14:13;11.60;99.90
15115;DHT22;7658;51.456;7.622;2023-10-09T00:16:41;11.60;99.90
15115;DHT22;7658;51.456;7.622;2023-10-09T00:19:22;11.60;99.90
15115;DHT22;7658;51.456;7.622;2023-10-09T00:21:58;11.50;99.90
15115;DHT22;7658;51.456;7.622;2023-10-09T00:24:33;11.50;99.90
15115;DHT22;7658;51.456;7.622;2023-10-09T00:26:59;11.50;99.90
15115;DHT22;7658;51.456;7.622;2023-10-09T00:29:38;11.50;99.90
15115;DHT22;7658;51.456;7.622;2023-10-09T00:32:13;11.50;99.90
15115;DHT22;7658;51.456;7.622;2023-10-09T00:34:41;11.60;99.90
15115;DHT22;7658;51.456;7.622;2023-10-09T00:37:10;11.60;99.90
15115;DHT22;7658;51.456;7.622;2023-10-09T00:39:42;11.60;99.90
15115;DHT22;7658;51.456;7.622;2023-10-09T00:42:14;11.60;99.90
15115;DHT22;7658;51.456;7.622;2023-10-09T00:44:48;11.60;99.90
15115;DHT22;7658;51.456;7.622;2023-10-09T00:47:15;11.60;99.90
15115;DHT22;7658;51.456;7.622;2023-10-09T00:50:02;11.60;99.90
15115;DHT22;7658;51.456;7.622;2023-10-09T00:52:37;11.60;99.90
15115;DHT22;7658;51.456;7.622;2023-10-09T00:55:17;11.60;99.90
15115;DHT22;7658;51.456;7.622;2023-10-09T00:57:50;11.60;99.90
15115;DHT22;7658;51.456;7.622;2023-10-09T01:00:24;11.60;99.90
15115;DHT22;7658;51.456;7.622;2023-10-09T01:03:20;11.60;99.90
15115;DHT22;7658;51.456;7.622;2023-10-09T01:06:01;11.70;99.90
15115;DHT22;7658;51.456;7.622;2023-10-09T01:08:47;11.80;99.90
15115;DHT22;7658;51.456;7.622;2023-10-09T01:11:34;12.00;99.90
15115;DHT22;7658;51.456;7.622;2023-10-09T01:14:00;12.00;99.90
15115;DHT22;7658;51.456;7.622;2023-10-09T01:16:35;12.10;99.90
15115;DHT22;7658;51.456;7.622;2023-10-09T01:19:00;12.10;99.90
15115;DHT22;7658;51.456;7.622;2023-10-09T01:21:31;12.20;99.90
15115;DHT22;7658;51.456;7.622;2023-10-09T01:23:57;12.30;99.90
15115;DHT22;7658;51.456;7.622;2023-10-09T01:29:16;12.70;99.90
15115;DHT22;7658;51.456;7.622;2023-10-09T01:31:49;12.90;99.90
15115;DHT22;7658;51.456;7.622;2023-10-09T01:34:25;13.20;99.90
15115;DHT22;7658;51.456;7.622;2023-10-09T01:37:08;13.30;99.90
15115;DHT22;7658;51.456;7.622;2023-10-09T01:39:56;13.50;99.90
15115;DHT22;7658;51.456;7.622;2023-10-09T01:42:45;13.70;99.90
15115;DHT22;7658;51.456;7.622;2023-10-09T01:45:11;13.80;99.90
15115;DHT22;7658;51.456;7.622;2023-10-09T01:47:38;13.80;99.90
15115;DHT22;7658;51.456;7.622;2023-10-09T01:50:05;13.80;99.90
15115;DHT22;7658;51.456;7.622;2023-10-09T01:52:35;13.80;99.90
15115;DHT22;7658;51.456;7.622;2023-10-09T01:55:03;13.80;99.90
15115;DHT22;7658;51.456;7.622;2023-10-09T01:57:40;13.80;99.90
15115;DHT22;7658;51.456;7.622;2023-10-09T02:00:10;13.70;99.90
15115;DHT22;7658;51.456;7.622;2023-10-09T02:02:49;13.80;99.90
15115;DHT22;7658;51.456;7.622;2023-10-09T02:05:16;13.80;99.90
15115;DHT22;7658;51.456;7.622;2023-10-09T02:07:42;13.80;99.90
15115;DHT22;7658;51.456;7.622;2023-10-09T02:10:19;13.70;99.90
15115;DHT22;7658;51.456;7.622;2023-10-09T02:13:06;13.80;99.90
15115;DHT22;7658;51.456;7.622;2023-10-09T02:15:37;13.80;99.90
15115;DHT22;7658;51.456;7.622;2023-10-09T02:18:20;13.80;99.90
15115;DHT22;7658;51.456;7.622;2023-10-09T02:20:51;13.80;99.90
15115;DHT22;7658;51.456;7.622;2023-10-09T02:23:30;13.80;99.90
15115;DHT22;7658;51.456;7.622;2023-10-09T02:26:13;13.90;99.90
15115;DHT22;7658;51.456;7.622;2023-10-09T02:28:55;14.00;99.90
15115;DHT22;7658;51.456;7.622;2023-10-09T02:31:25;14.00;99.90
15115;DHT22;7658;51.456;7.622;2023-10-09T02:34:10;14.00;99.90
15115;DHT22;7658;51.456;7.622;2023-10-09T02:36:39;14.10;99.90
15115;DHT22;7658;51.456;7.622;2023-10-09T02:39:08;14.10;99.90
15115;DHT22;7658;51.456;7.622;2023-10-09T02:41:57;14.20;99.90
15115;DHT22;7658;51.456;7.622;2023-10-09T02:44:38;14.30;99.90
15115;DHT22;7658;51.456;7.622;2023-10-09T02:47:16;14.30;99.90
15115;DHT22;7658;51.456;7.622;2023-10-09T02:49:51;14.30;99.90
15115;DHT22;7658;51.456;7.622;2023-10-09T02:52:17;14.30;99.90
15115;DHT22;7658;51.456;7.622;2023-10-09T02:54:51;14.40;99.90
15115;DHT22;7658;51.456;7.622;2023-10-09T02:57:26;14.50;99.90
15115;DHT22;7658;51.456;7.622;2023-10-09T03:00:02;14.50;99.90
15115;DHT22;7658;51.456;7.622;2023-10-09T03:02:28;14.40;99.90
15115;DHT22;7658;51.456;7.622;2023-10-09T03:04:57;14.60;99.90
15115;DHT22;7658;51.456;7.622;2023-10-09T03:07:25;14.60;99.90
15115;DHT22;7658;51.456;7.622;2023-10-09T03:09:50;14.60;99.90
15115;DHT22;7658;51.456;7.622;2023-10-09T03:12:16;14.60;99.90
15115;DHT22;7658;51.456;7.622;2023-10-09T03:14:44;14.70;99.90
15115;DHT22;7658;51.456;7.622;2023-10-09T03:17:10;14.70;99.90
15115;DHT22;7658;51.456;7.622;2023-10-09T03:19:37;14.80;99.90
15115;DHT22;7658;51.456;7.622;2023-10-09T03:22:09;14.80;99.90
15115;DHT22;7658;51.456;7.622;2023-10-09T03:24:38;14.70;99.90
15115;DHT22;7658;51.456;7.622;2023-10-09T03:27:04;14.70;99.90
15115;DHT22;7658;51.456;7.622;2023-10-09T03:29:30;14.70;99.90
15115;DHT22;7658;51.456;7.622;2023-10-09T03:31:56;14.70;99.90
15115;DHT22;7658;51.456;7.622;2023-10-09T03:34:23;14.70;99.90
15115;DHT22;7658;51.456;7.622;2023-10-09T03:36:49;14.70;99.90
15115;DHT22;7658;51.456;7.622;2023-10-09T03:39:25;14.70;99.90
15115;DHT22;7658;51.456;7.622;2023-10-09T03:42:12;14.70;99.90
15115;DHT22;7658;51.456;7.622;2023-10-09T03:44:45;14.70;99.90
15115;DHT22;7658;51.456;7.622;2023-10-09T03:47:19;14.70;99.90
15115;DHT22;7658;51.456;7.622;2023-10-09T03:49:51;14.70;99.90
15115;DHT22;7658;51.456;7.622;2023-10-09T03:52:18;14.70;99.90
15115;DHT22;7658;51.456;7.622;2023-10-09T03:54:45;14.70;99.90
15115;DHT22;7658;51.456;7.622;2023-10-09T03:57:15;14.70;99.90
15115;DHT22;7658;51.456;7.622;2023-10-09T03:59:47;14.70;99.90
15115;DHT22;7658;51.456;7.622;2023-10-09T04:02:14;14.60;99.90
15115;DHT22;7658;51.456;7.622;2023-10-09T04:04:42;14.60;99.90
15115;DHT22;7658;51.456;7.622;2023-10-09T04:07:13;14.70;99.90
15115;DHT22;7658;51.456;7.622;2023-10-09T04:09:42;14.80;99.90
15115;DHT22;7658;51.456;7.622;2023-10-09T04:12:10;14.80;99.90
15115;DHT22;7658;51.456;7.622;2023-10-09T04:14:36;14.90;99.90
15115;DHT22;7658;51.456;7.622;2023-10-09T04:17:09;14.90;99.90
15115;DHT22;7658;51.456;7.622;2023-10-09T04:20:03;14.90;99.90
15115;DHT22;7658;51.456;7.622;2023-10-09T04:23:01;14.90;99.90
15115;DHT22;7658;51.456;7.622;2023-10-09T04:25:31;14.90;99.90
15115;DHT22;7658;51.456;7.622;2023-10-09T04:28:11;14.90;99.90
15115;DHT22;7658;51.456;7.622;2023-10-09T04:30:47;15.00;99.90
15115;DHT22;7658;51.456;7.622;2023-10-09T04:33:19;15.00;99.90
15115;DHT22;7658;51.456;7.622;2023-10-09T04:36:09;14.90;99.90
15115;DHT22;7658;51.456;7.622;2023-10-09T04:38:48;14.90;99.90
15115;DHT22;7658;51.456;7.622;2023-10-09T04:41:29;14.90;99.90
15115;DHT22;7658;51.456;7.622;2023-10-09T04:43:59;15.00;99.90
15115;DHT22;7658;51.456;7.622;2023-10-09T04:46:55;15.10;99.90
15115;DHT22;7658;51.456;7.622;2023-10-09T04:49:37;15.10;99.90
15115;DHT22;7658;51.456;7.622;2023-10-09T04:52:27;15.10;99.90
15115;DHT22;7658;51.456;7.622;2023-10-09T04:54:55;15.10;99.90
15115;DHT22;7658;51.456;7.622;2023-10-09T04:57:30;15.10;99.90
15115;DHT22;7658;51.456;7.622;2023-10-09T05:00:04;15.10;99.90
15115;DHT22;7658;51.456;7.622;2023-10-09T05:02:32;15.10;99.90
15115;DHT22;7658;51.456;7.622;2023-10-09T05:05:02;15.10;99.90
15115;DHT22;7658;51.456;7.622;2023-10-09T05:07:41;15.10;99.90
15115;DHT22;7658;51.456;7.622;2023-10-09T05:10:22;15.00;99.90
15115;DHT22;7658;51.456;7.622;2023-10-09T05:12:51;15.00;99.90
15115;DHT22;7658;51.456;7.622;2023-10-09T05:15:23;15.00;99.90
15115;DHT22;7658;51.456;7.622;2023-10-09T05:17:55;15.00;99.90
15115;DHT22;7658;51.456;7.622;2023-10-09T05:20:27;15.10;99.90
15115;DHT22;7658;51.456;7.622;2023-10-09T05:22:53;15.10;99.90
15115;DHT22;7658;51.456;7.622;2023-10-09T05:25:44;15.10;99.90
15115;DHT22;7658;51.456;7.622;2023-10-09T05:28:19;15.10;99.90
15115;DHT22;7658;51.456;7.622;2023-10-09T05:30:54;15.20;99.90
15115;DHT22;7658;51.456;7.622;2023-10-09T05:33:43;15.20;99.90
15115;DHT22;7658;51.456;7.622;2023-10-09T05:36:10;15.20;99.90
15115;DHT22;7658;51.456;7.622;2023-10-09T05:38:51;15.30;99.90
15115;DHT22;7658;51.456;7.622;2023-10-09T05:41:35;15.30;99.90
15115;DHT22;7658;51.456;7.622;2023-10-09T05:44:25;15.40;99.90
15115;DHT22;7658;51.456;7.622;2023-10-09T05:47:09;15.40;99.90
15115;DHT22;7658;51.456;7.622;2023-10-09T05:49:54;15.30;99.90
15115;DHT22;7658;51.456;7.622;2023-10-09T05:52:23;15.30;99.90
15115;DHT22;7658;51.456;7.622;2023-10-09T05:55:08;15.30;99.90
15115;DHT22;7658;51.456;7.622;2023-10-09T05:57:55;15.40;99.90
15115;DHT22;7658;51.456;7.622;2023-10-09T06:00:27;15.40;99.90
15115;DHT22;7658;51.456;7.622;2023-10-09T06:03:11;15.30;99.90
15115;DHT22;7658;51.456;7.622;2023-10-09T06:05:56;15.30;99.90
15115;DHT22;7658;51.456;7.622;2023-10-09T06:08:22;15.30;99.90
15115;DHT22;7658;51.456;7.622;2023-10-09T06:11:10;15.20;99.90
15115;DHT22;7658;51.456;7.622;2023-10-09T06:13:55;15.20;99.90
15115;DHT22;7658;51.456;7.622;2023-10-09T06:16:42;15.20;99.90
15115;DHT22;7658;51.456;7.622;2023-10-09T06:19:10;15.30;99.90
15115;DHT22;7658;51.456;7.622;2023-10-09T06:21:58;15.30;99.90
15115;DHT22;7658;51.456;7.622;2023-10-09T06:24:42;15.40;99.90
15115;DHT22;7658;51.456;7.622;2023-10-09T06:27:12;15.40;99.90
15115;DHT22;7658;51.456;7.622;2023-10-09T06:29:39;15.40;99.90
15115;DHT22;7658;51.456;7.622;2023-10-09T06:32:13;15.40;99.90
15115;DHT22;7658;51.456;7.622;2023-10-09T06:34:57;15.50;99.90
15115;DHT22;7658;51.456;7.622;2023-10-09T06:37:46;15.50;99.90
15115;DHT22;7658;51.456;7.622;2023-10-09T06:40:35;15.50;99.90
15115;DHT22;7658;51.456;7.622;2023-10-09T06:43:21;15.50;99.90
15115;DHT22;7658;51.456;7.622;2023-10-09T06:45:50;15.50;99.90
15115;DHT22;7658;51.456;7.622;2023-10-09T06:48:35;15.50;99.90
15115;DHT22;7658;51.456;7.622;2023-10-09T06:51:08;15.40;99.90
15115;DHT22;7658;51.456;7.622;2023-10-09T06:53:56;15.50;99.90
15115;DHT22;7658;51.456;7.622;2023-10-09T06:56:26;15.40;99.90
15115;DHT22;7658;51.456;7.622;2023-10-09T06:58:56;15.50;99.90
15115;DHT22;7658;51.456;7.622;2023-10-09T07:01:24;15.50;99.90
15115;DHT22;7658;51.456;7.622;2023-10-09T07:03:53;15.60;99.90
15115;DHT22;7658;51.456;7.622;2023-10-09T07:06:20;15.70;99.90
15115;DHT22;7658;51.456;7.622;2023-10-09T07:08:56;15.70;99.90
15115;DHT22;7658;51.456;7.622;2023-10-09T07:11:47;15.80;99.90
15115;DHT22;7658;51.456;7.622;2023-10-09T07:14:31;15.80;99.90
15115;DHT22;7658;51.456;7.622;2023-10-09T07:17:05;15.80;99.90
15115;DHT22;7658;51.456;7.622;2023-10-09T07:19:53;15.90;99.90
15115;DHT22;7658;51.456;7.622;2023-10-09T07:22:18;15.90;99.90
15115;DHT22;7658;51.456;7.622;2023-10-09T07:24:48;15.90;99.90
15115;DHT22;7658;51.456;7.622;2023-10-09T07:27:28;15.90;99.90
15115;DHT22;7658;51.456;7.622;2023-10-09T07:30:14;16.00;99.90
15115;DHT22;7658;51.456;7.622;2023-10-09T07:33:13;16.00;99.90
15115;DHT22;7658;51.456;7.622;2023-10-09T07:35:46;16.10;99.90
15115;DHT22;7658;51.456;7.622;2023-10-09T07:38:24;16.10;99.90
15115;DHT22;7658;51.456;7.622;2023-10-09T07:41:01;16.20;99.90
15115;DHT22;7658;51.456;7.622;2023-10-09T07:43:38;16.30;99.90
15115;DHT22;7658;51.456;7.622;2023-10-09T07:46:17;16.30;99.90
15115;DHT22;7658;51.456;7.622;2023-10-09T07:49:01;16.40;99.90
15115;DHT22;7658;51.456;7.622;2023-10-09T07:51:35;16.40;99.90
15115;DHT22;7658;51.456;7.622;2023-10-09T07:54:02;16.30;99.90
15115;DHT22;7658;51.456;7.622;2023-10-09T07:56:38;16.30;99.90
15115;DHT22;7658;51.456;7.622;2023-10-09T07:59:06;16.30;99.90
15115;DHT22;7658;51.456;7.622;2023-10-09T08:01:47;16.30;99.90
15115;DHT22;7658;51.456;7.622;2023-10-09T08:04:28;16.30;99.90
15115;DHT22;7658;51.456;7.622;2023-10-09T08:07:14;16.20;99.90
15115;DHT22;7658;51.456;7.622;2023-10-09T08:09:56;16.20;99.90
15115;DHT22;7658;51.456;7.622;2023-10-09T08:12:42;16.20;99.90
15115;DHT22;7658;51.456;7.622;2023-10-09T08:15:24;16.30;99.90
15115;DHT22;7658;51.456;7.622;2023-10-09T08:18:13;16.30;99.90
15115;DHT22;7658;51.456;7.622;2023-10-09T08:20:54;16.40;99.90
15115;DHT22;7658;51.456;7.622;2023-10-09T08:23:25;16.50;99.90
15115;DHT22;7658;51.456;7.622;2023-10-09T08:26:17;16.60;99.90
15115;DHT22;7658;51.456;7.622;2023-10-09T08:29:04;16.70;99.90
15115;DHT22;7658;51.456;7.622;2023-10-09T08:31:43;16.70;99.90
15115;DHT22;7658;51.456;7.622;2023-10-09T08:34:15;16.80;99.90
15115;DHT22;7658;51.456;7.622;2023-10-09T08:36:51;16.80;99.90
15115;DHT22;7658;51.456;7.622;2023-10-09T08:39:21;16.80;99.90
15115;DHT22;7658;51.456;7.622;2023-10-09T08:41:58;16.80;99.90
15115;DHT22;7658;51.456;7.622;2023-10-09T08:44:26;16.90;99.90
15115;DHT22;7658;51.456;7.622;2023-10-09T08:46:55;16.80;99.90
15115;DHT22;7658;51.456;7.622;2023-10-09T08:49:23;16.80;99.90
15115;DHT22;7658;51.456;7.622;2023-10-09T08:51:50;16.80;99.90
15115;DHT22;7658;51.456;7.622;2023-10-09T08:54:18;16.80;99.90
15115;DHT22;7658;51.456;7.622;2023-10-09T08:56:45;16.80;99.90
15115;DHT22;7658;51.456;7.622;2023-10-09T08:59:26;16.80;99.90
15115;DHT22;7658;51.456;7.622;2023-10-09T09:01:55;16.70;99.90
15115;DHT22;7658;51.456;7.622;2023-10-09T09:04:40;16.70;99.90
15115;DHT22;7658;51.456;7.622;2023-10-09T09:07:31;16.70;99.90
15115;DHT22;7658;51.456;7.622;2023-10-09T09:10:10;16.70;99.90
15115;DHT22;7658;51.456;7.622;2023-10-09T09:13:02;16.70;99.90
15115;DHT22;7658;51.456;7.622;2023-10-09T09:15:29;16.70;99.90
15115;DHT22;7658;51.456;7.622;2023-10-09T09:18:08;16.70;99.90
15115;DHT22;7658;51.456;7.622;2023-10-09T09:20:43;16.70;99.90
15115;DHT22;7658;51.456;7.622;2023-10-09T09:23:16;16.80;99.90
15115;DHT22;7658;51.456;7.622;2023-10-09T09:25:52;16.90;99.90
15115;DHT22;7658;51.456;7.622;2023-10-09T09:28:57;17.00;99.90
15115;DHT22;7658;51.456;7.622;2023-10-09T09:32:14;17.10;99.90
15115;DHT22;7658;51.456;7.622;2023-10-09T09:35:02;17.20;99.90
15115;DHT22;7658;51.456;7.622;2023-10-09T09:37:39;17.30;99.90
15115;DHT22;7658;51.456;7.622;2023-10-09T09:40:41;17.40;99.90
15115;DHT22;7658;51.456;7.622;2023-10-09T09:44:15;17.40;99.90
15115;DHT22;7658;51.456;7.622;2023-10-09T09:50:19;17.70;99.90
15115;DHT22;7658;51.456;7.622;2023-10-09T09:52:54;18.00;99.90
15115;DHT22;7658;51.456;7.622;2023-10-09T09:56:03;18.10;99.90
15115;DHT22;7658;51.456;7.622;2023-10-09T09:58:33;18.30;99.90
15115;DHT22;7658;51.456;7.622;2023-10-09T10:01:11;18.50;99.90
15115;DHT22;7658;51.456;7.622;2023-10-09T10:07:19;18.60;99.90
15115;DHT22;7658;51.456;7.622;2023-10-09T10:09:48;18.60;99.90
15115;DHT22;7658;51.456;7.622;2023-10-09T10:12:52;18.60;99.90
15115;DHT22;7658;51.456;7.622;2023-10-09T10:15:58;18.70;99.90
15115;DHT22;7658;51.456;7.622;2023-10-09T10:18:30;18.70;99.90
15115;DHT22;7658;51.456;7.622;2023-10-09T10:21:10;18.80;99.90
15115;DHT22;7658;51.456;7.622;2023-10-09T10:24:02;18.80;99.90
15115;DHT22;7658;51.456;7.622;2023-10-09T10:30:27;19.00;99.90
15115;DHT22;7658;51.456;7.622;2023-10-09T10:33:01;19.00;99.90
15115;DHT22;7658;51.456;7.622;2023-10-09T10:35:41;19.00;99.90
15115;DHT22;7658;51.456;7.622;2023-10-09T10:38:32;19.00;99.90
15115;DHT22;7658;51.456;7.622;2023-10-09T10:41:24;19.00;99.90
15115;DHT22;7658;51.456;7.622;2023-10-09T10:43:50;19.10;99.90
15115;DHT22;7658;51.456;7.622;2023-10-09T10:46:16;19.10;99.90
15115;DHT22;7658;51.456;7.622;2023-10-09T10:49:01;19.10;99.90
15115;DHT22;7658;51.456;7.622;2023-10-09T10:51:39;19.10;99.90
15115;DHT22;7658;51.456;7.622;2023-10-09T10:54:08;19.10;99.90
15115;DHT22;7658;51.456;7.622;2023-10-09T10:56:54;19.10;99.90
15115;DHT22;7658;51.456;7.622;2023-10-09T10:59:23;19.20;99.90
15115;DHT22;7658;51.456;7.622;2023-10-09T11:01:52;19.10;99.90
15115;DHT22;7658;51.456;7.622;2023-10-09T11:04:26;19.10;99.90
15115;DHT22;7658;51.456;7.622;2023-10-09T11:06:56;19.20;99.90
15115;DHT22;7658;51.456;7.622;2023-10-09T11:09:50;19.20;99.90
15115;DHT22;7658;51.456;7.622;2023-10-09T11:12:42;19.10;99.90
15115;DHT22;7658;51.456;7.622;2023-10-09T11:15:13;19.00;99.90
15115;DHT22;7658;51.456;7.622;2023-10-09T11:18:07;19.00;99.90
15115;DHT22;7658;51.456;7.622;2023-10-09T11:20:37;19.10;99.90
15115;DHT22;7658;51.456;7.622;2023-10-09T11:23:05;19.00;99.90
15115;DHT22;7658;51.456;7.622;2023-10-09T11:25:32;19.00;99.90
15115;DHT22;7658;51.456;7.622;2023-10-09T11:27:58;19.10;99.90
15115;DHT22;7658;51.456;7.622;2023-10-09T11:30:41;19.10;99.90
15115;DHT22;7658;51.456;7.622;2023-10-09T11:33:12;19.10;99.90
15115;DHT22;7658;51.456;7.622;2023-10-09T11:35:41;19.10;99.90
15115;DHT22;7658;51.456;7.622;2023-10-09T11:38:09;19.20;99.90
15115;DHT22;7658;51.456;7.622;2023-10-09T11:40:47;19.20;99.90
15115;DHT22;7658;51.456;7.622;2023-10-09T11:43:45;19.20;99.90
15115;DHT22;7658;51.456;7.622;2023-10-09T11:46:21;19.30;99.90
15115;DHT22;7658;51.456;7.622;2023-10-09T11:49:04;19.40;99.90
15115;DHT22;7658;51.456;7.622;2023-10-09T11:51:46;19.40;99.90
15115;DHT22;7658;51.456;7.622;2023-10-09T11:54:51;19.50;99.90
15115;DHT22;7658;51.456;7.622;2023-10-09T11:57:33;19.50;99.90
15115;DHT22;7658;51.456;7.622;2023-10-09T12:00:16;19.70;99.90
15115;DHT22;7658;51.456;7.622;2023-10-09T12:03:20;19.70;99.90
15115;DHT22;7658;51.456;7.622;2023-10-09T12:06:12;19.60;99.90
15115;DHT22;7658;51.456;7.622;2023-10-09T12:09:38;19.60;99.90
15115;DHT22;7658;51.456;7.622;2023-10-09T12:12:30;19.40;99.90
15115;DHT22;7658;51.456;7.622;2023-10-09T12:14:56;19.30;99.90
15115;DHT22;7658;51.456;7.622;2023-10-09T12:17:22;19.20;99.90
15115;DHT22;7658;51.456;7.622;2023-10-09T12:19:51;19.10;99.90
15115;DHT22;7658;51.456;7.622;2023-10-09T12:22:16;19.10;99.90
15115;DHT22;7658;51.456;7.622;2023-10-09T12:24:42;19.10;99.90
15115;DHT22;7658;51.456;7.622;2023-10-09T12:27:09;19.10;99.90
15115;DHT22;7658;51.456;7.622;2023-10-09T12:29:38;19.10;99.90
15115;DHT22;7658;51.456;7.622;2023-10-09T12:32:10;19.20;99.90
15115;DHT22;7658;51.456;7.622;2023-10-09T12:34:36;19.10;99.90
15115;DHT22;7658;51.456;7.622;2023-10-09T12:37:04;19.10;99.90
15115;DHT22;7658;51.456;7.622;2023-10-09T12:39:30;19.10;99.90
15115;DHT22;7658;51.456;7.622;2023-10-09T12:42:02;19.10;99.90
15115;DHT22;7658;51.456;7.622;2023-10-09T12:44:34;19.00;99.90
15115;DHT22;7658;51.456;7.622;2023-10-09T12:47:09;19.10;99.90
15115;DHT22;7658;51.456;7.622;2023-10-09T12:49:38;19.10;99.90
15115;DHT22;7658;51.456;7.622;2023-10-09T12:52:07;19.20;99.90
15115;DHT22;7658;51.456;7.622;2023-10-09T12:54:42;19.20;99.90
15115;DHT22;7658;51.456;7.622;2023-10-09T12:57:09;19.10;99.90
15115;DHT22;7658;51.456;7.622;2023-10-09T12:59:39;19.10;99.90
15115;DHT22;7658;51.456;7.622;2023-10-09T13:02:12;19.10;99.90
15115;DHT22;7658;51.456;7.622;2023-10-09T13:04:37;19.10;99.90
15115;DHT22;7658;51.456;7.622;2023-10-09T13:07:06;19.10;99.90
15115;DHT22;7658;51.456;7.622;2023-10-09T13:09:33;19.10;99.90
15115;DHT22;7658;51.456;7.622;2023-10-09T13:12:08;19.00;99.90
15115;DHT22;7658;51.456;7.622;2023-10-09T13:14:34;18.90;99.90
15115;DHT22;7658;51.456;7.622;2023-10-09T13:17:01;18.90;99.90
15115;DHT22;7658;51.456;7.622;2023-10-09T13:19:35;19.00;99.90
15115;DHT22;7658;51.456;7.622;2023-10-09T13:22:01;18.90;99.90
15115;DHT22;7658;51.456;7.622;2023-10-09T13:24:29;18.90;99.90
15115;DHT22;7658;51.456;7.622;2023-10-09T13:26:56;18.80;99.90
15115;DHT22;7658;51.456;7.622;2023-10-09T13:29:24;18.90;99.90
15115;DHT22;7658;51.456;7.622;2023-10-09T13:31:50;18.90;99.90
15115;DHT22;7658;51.456;7.622;2023-10-09T13:34:23;18.90;99.90
15115;DHT22;7658;51.456;7.622;2023-10-09T13:36:53;18.80;99.90
15115;DHT22;7658;51.456;7.622;2023-10-09T13:39:20;18.80;99.90
15115;DHT22;7658;51.456;7.622;2023-10-09T13:41:59;18.80;99.90
15115;DHT22;7658;51.456;7.622;2023-10-09T13:44:28;18.80;99.90
15115;DHT22;7658;51.456;7.622;2023-10-09T13:46:59;18.90;99.90
15115;DHT22;7658;51.456;7.622;2023-10-09T13:49:25;18.90;99.90
15115;DHT22;7658;51.456;7.622;2023-10-09T13:52:01;19.00;99.90
15115;DHT22;7658;51.456;7.622;2023-10-09T13:54:28;18.90;99.90
15115;DHT22;7658;51.456;7.622;2023-10-09T13:57:04;19.00;99.90
15115;DHT22;7658;51.456;7.622;2023-10-09T13:59:34;19.00;99.90
15115;DHT22;7658;51.456;7.622;2023-10-09T14:02:08;18.90;99.90
15115;DHT22;7658;51.456;7.622;2023-10-09T14:04:35;18.90;99.90
15115;DHT22;7658;51.456;7.622;2023-10-09T14:07:01;18.90;99.90
15115;DHT22;7658;51.456;7.622;2023-10-09T14:09:28;18.90;99.90
15115;DHT22;7658;51.456;7.622;2023-10-09T14:12:00;18.90;99.90
15115;DHT22;7658;51.456;7.622;2023-10-09T14:14:36;18.90;99.90
15115;DHT22;7658;51.456;7.622;2023-10-09T14:17:07;18.80;99.90
15115;DHT22;7658;51.456;7.622;2023-10-09T14:19:39;18.80;99.90
15115;DHT22;7658;51.456;7.622;2023-10-09T14:22:16;18.80;99.90
15115;DHT22;7658;51.456;7.622;2023-10-09T14:24:46;18.80;99.90
15115;DHT22;7658;51.456;7.622;2023-10-09T14:27:15;18.80;99.90
15115;DHT22;7658;51.456;7.622;2023-10-09T14:29:48;18.80;99.90
15115;DHT22;7658;51.456;7.622;2023-10-09T14:32:14;18.80;99.90
15115;DHT22;7658;51.456;7.622;2023-10-09T14:34:41;18.80;99.90
15115;DHT22;7658;51.456;7.622;2023-10-09T14:37:17;18.90;99.90
15115;DHT22;7658;51.456;7.622;2023-10-09T14:39:44;18.80;99.90
15115;DHT22;7658;51.456;7.622;2023-10-09T14:42:17;18.80;99.90
15115;DHT22;7658;51.456;7.622;2023-10-09T14:44:43;18.80;99.90
15115;DHT22;7658;51.456;7.622;2023-10-09T14:47:11;18.80;99.90
15115;DHT22;7658;51.456;7.622;2023-10-09T14:49:39;18.90;99.90
15115;DHT22;7658;51.456;7.622;2023-10-09T14:52:15;18.90;99.90
15115;DHT22;7658;51.456;7.622;2023-10-09T14:54:46;18.80;99.90
15115;DHT22;7658;51.456;7.622;2023-10-09T14:57:12;18.80;99.90
15115;DHT22;7658;51.456;7.622;2023-10-09T14:59:38;18.80;99.90
15115;DHT22;7658;51.456;7.622;2023-10-09T15:02:05;18.70;99.90
15115;DHT22;7658;51.456;7.622;2023-10-09T15:04:33;18.70;99.90
15115;DHT22;7658;51.456;7.622;2023-10-09T15:07:03;18.70;99.90
15115;DHT22;7658;51.456;7.622;2023-10-09T15:09:35;18.70;99.90
15115;DHT22;7658;51.456;7.622;2023-10-09T15:12:05;18.70;99.90
15115;DHT22;7658;51.456;7.622;2023-10-09T15:14:32;18.70;99.90
15115;DHT22;7658;51.456;7.622;2023-10-09T15:16:58;18.60;99.90
15115;DHT22;7658;51.456;7.622;2023-10-09T15:19:23;18.70;99.90
15115;DHT22;7658;51.456;7.622;2023-10-09T15:22:02;18.60;99.90
15115;DHT22;7658;51.456;7.622;2023-10-09T15:27:35;18.60;99.90
15115;DHT22;7658;51.456;7.622;2023-10-09T15:30:05;18.60;99.90
15115;DHT22;7658;51.456;7.622;2023-10-09T15:32:53;18.60;99.90
15115;DHT22;7658;51.456;7.622;2023-10-09T15:35:50;18.60;99.90
15115;DHT22;7658;51.456;7.622;2023-10-09T15:38:20;18.60;99.90
15115;DHT22;7658;51.456;7.622;2023-10-09T15:40:46;18.60;99.90
15115;DHT22;7658;51.456;7.622;2023-10-09T15:43:14;18.60;99.90
15115;DHT22;7658;51.456;7.622;2023-10-09T15:46:04;18.60;99.90
15115;DHT22;7658;51.456;7.622;2023-10-09T15:48:36;18.60;99.90
15115;DHT22;7658;51.456;7.622;2023-10-09T15:51:02;18.50;99.90
15115;DHT22;7658;51.456;7.622;2023-10-09T15:53:28;18.60;99.90
15115;DHT22;7658;51.456;7.622;2023-10-09T15:55:54;18.60;99.90
15115;DHT22;7658;51.456;7.622;2023-10-09T15:58:23;18.60;99.90
15115;DHT22;7658;51.456;7.622;2023-10-09T16:00:49;18.60;99.90
15115;DHT22;7658;51.456;7.622;2023-10-09T16:03:15;18.60;99.90
15115;DHT22;7658;51.456;7.622;2023-10-09T16:05:41;18.50;99.90
15115;DHT22;7658;51.456;7.622;2023-10-09T16:08:07;18.50;99.90
15115;DHT22;7658;51.456;7.622;2023-10-09T16:10:33;18.50;99.90
15115;DHT22;7658;51.456;7.622;2023-10-09T16:13:00;18.50;99.90
15115;DHT22;7658;51.456;7.622;2023-10-09T16:15:27;18.50;99.90
15115;DHT22;7658;51.456;7.622;2023-10-09T16:17:53;18.50;99.90
15115;DHT22;7658;51.456;7.622;2023-10-09T16:20:29;18.40;99.90
15115;DHT22;7658;51.456;7.622;2023-10-09T16:22:58;18.50;99.90
15115;DHT22;7658;51.456;7.622;2023-10-09T16:25:25;18.40;99.90
15115;DHT22;7658;51.456;7.622;2023-10-09T16:27:52;18.40;99.90
15115;DHT22;7658;51.456;7.622;2023-10-09T16:30:23;18.40;99.90
15115;DHT22;7658;51.456;7.622;2023-10-09T16:32:51;18.30;99.90
15115;DHT22;7658;51.456;7.622;2023-10-09T16:35:17;18.30;99.90
15115;DHT22;7658;51.456;7.622;2023-10-09T16:37:47;18.30;99.90
15115;DHT22;7658;51.456;7.622;2023-10-09T16:40:15;18.30;99.90
15115;DHT22;7658;51.456;7.622;2023-10-09T16:42:41;18.30;99.90
15115;DHT22;7658;51.456;7.622;2023-10-09T16:45:10;18.30;99.90
15115;DHT22;7658;51.456;7.622;2023-10-09T16:47:45;18.30;99.90
15115;DHT22;7658;51.456;7.622;2023-10-09T16:50:11;18.30;99.90
15115;DHT22;7658;51.456;7.622;2023-10-09T16:52:38;18.30;99.90